Weather at Kandahar Airport

Public forecast

Using degrees Celsius for public forecast. Weather courtesy of forecast.io.

Current aviation weather report (METAR) for Kandahar Airport

Retrieved 2020/09/23 15:20 UTC (25 minutes ago):

OAKN 231520Z 21004KT 3200 HZ CLR 24/00 A2985 RMK AO2A SLP043 WND DATA ESTMD

Aviation forecast (TAF) for Kandahar Airport

Retrieved 2020/09/23 15:03 UTC (42 minutes ago):

TAF TAF OAKN 231500Z 2315/2421 VRB06KT 4000 HZ SKC QNH2982INS TEMPO 2315/2318 24012KT 2400 DU BECMG 2319/2320 VRB06KT 6000 HZ SKC QNH2984INS BECMG 2407/2408 26009KT 8000 HZ SKC QNH2983INS BECMG 2413/2414 VRB06KT 6000 HZ SKC QNH2980INS TX30/2411Z TN14/2401Z